createdAt,value
2019-03-28T16:37:09.458Z,6.73
2019-03-28T16:39:37.731Z,4.63
2019-03-28T16:42:05.164Z,3.80
2019-03-28T16:44:32.552Z,4.07
2019-03-28T16:46:59.821Z,5.97
2019-03-28T16:49:27.098Z,3.70
2019-03-28T16:51:54.409Z,4.20
2019-03-28T16:54:21.842Z,4.07
2019-03-28T16:56:49.115Z,3.93
2019-03-28T16:59:16.421Z,4.40
2019-03-28T17:01:43.755Z,5.30
2019-03-28T17:04:20.728Z,4.50
2019-03-28T17:06:40.534Z,4.10
2019-03-28T17:09:07.917Z,4.07
2019-03-28T17:11:35.194Z,5.00
2019-03-28T17:14:02.624Z,4.80
2019-03-28T17:16:29.900Z,5.20
2019-03-28T17:18:57.241Z,4.00
2019-03-28T17:21:24.544Z,3.30
2019-03-28T17:23:51.840Z,2.80
2019-03-28T17:26:19.104Z,3.43
2019-03-28T17:28:46.410Z,3.00
2019-03-28T17:31:13.684Z,3.47
2019-03-28T17:33:40.961Z,3.73
2019-03-28T17:36:08.440Z,3.10
2019-03-28T17:38:35.766Z,4.10
2019-03-28T17:41:06.304Z,4.90
2019-03-28T17:43:32.128Z,3.90
2019-03-28T17:45:59.393Z,4.00
2019-03-28T17:48:28.486Z,5.40
2019-03-28T17:50:55.708Z,4.67
2019-03-28T17:53:24.140Z,4.10
2019-03-28T17:55:51.593Z,5.00
2019-03-28T17:58:18.974Z,4.70
2019-03-28T18:00:46.885Z,5.20
2019-03-28T18:03:14.172Z,6.30
2019-03-28T18:05:42.520Z,3.70
2019-03-28T18:08:09.944Z,3.00
2019-03-28T18:10:37.213Z,3.00
2019-03-28T18:13:05.058Z,3.37
2019-03-28T18:15:32.969Z,3.30
2019-03-28T18:18:00.240Z,3.60
2019-03-28T18:20:27.700Z,3.20
2019-03-28T18:22:54.965Z,4.03
2019-03-28T18:25:22.307Z,2.90
2019-03-28T18:27:49.612Z,3.60
2019-03-28T18:30:17.252Z,3.33
2019-03-28T18:32:44.826Z,3.83
2019-03-28T18:35:12.484Z,4.20
2019-03-28T18:37:39.753Z,4.20
2019-03-28T18:40:07.260Z,4.10
2019-03-28T18:42:34.563Z,4.77
2019-03-28T18:45:02.131Z,5.63
2019-03-28T18:47:29.482Z,5.13
2019-03-28T18:49:58.428Z,5.27
2019-03-28T18:52:25.754Z,4.80
2019-03-28T18:54:53.097Z,4.20
2019-03-28T18:57:20.405Z,4.67
2019-03-28T18:59:47.694Z,5.00
2019-03-28T19:02:14.975Z,5.20
2019-03-28T19:04:42.256Z,4.40
2019-03-28T19:07:09.995Z,4.83
2019-03-28T19:09:37.468Z,5.00
2019-03-28T19:12:04.833Z,4.13
2019-03-28T19:14:32.100Z,4.30
2019-03-28T19:16:59.390Z,4.63
2019-03-28T19:19:38.630Z,4.00
2019-03-28T19:21:56.845Z,3.20
2019-03-28T19:24:24.795Z,4.83
2019-03-28T19:26:52.853Z,3.90
2019-03-28T19:29:20.255Z,4.30
2019-03-28T19:31:47.610Z,4.27
2019-03-28T19:34:15.170Z,4.00
2019-03-28T19:36:44.940Z,4.23
2019-03-28T19:39:11.571Z,4.60
2019-03-28T19:41:38.872Z,5.00
2019-03-28T19:44:06.137Z,4.90
2019-03-28T19:46:33.473Z,4.77
2019-03-28T19:49:00.786Z,4.90
2019-03-28T19:51:28.449Z,4.20
2019-03-28T19:53:56.021Z,4.63
2019-03-28T19:56:24.375Z,4.10
2019-03-28T19:58:51.796Z,4.43
2019-03-28T20:01:19.092Z,4.40
2019-03-28T20:03:47.107Z,4.13
2019-03-28T20:06:22.010Z,4.30
2019-03-28T20:08:44.910Z,5.57
2019-03-28T20:11:12.514Z,5.57
2019-03-28T20:13:39.859Z,5.87
2019-03-28T20:16:07.212Z,6.43
2019-03-28T20:18:35.796Z,6.27
2019-03-28T20:21:03.363Z,6.73
2019-03-28T20:23:30.636Z,5.17
2019-03-28T20:25:58.983Z,5.33
2019-03-28T20:28:27.566Z,5.57
2019-03-28T20:30:54.894Z,5.80
2019-03-28T20:33:24.986Z,6.03
2019-03-28T20:36:11.820Z,6.07
2019-03-28T20:38:20.450Z,6.60
2019-03-28T20:40:47.829Z,6.60
2019-03-28T20:43:16.408Z,5.67
2019-03-28T20:45:43.785Z,5.00
2019-03-28T20:48:11.119Z,4.63
2019-03-28T20:50:38.536Z,4.90
2019-03-28T20:53:05.921Z,4.47
2019-03-28T20:55:33.601Z,4.50
2019-03-28T20:58:00.991Z,5.33
2019-03-28T21:00:39.137Z,4.63
2019-03-28T21:03:06.820Z,5.50
2019-03-28T21:05:35.849Z,6.03
2019-03-28T21:08:03.603Z,6.00
2019-03-28T21:10:33.459Z,4.80
2019-03-28T21:13:00.061Z,4.70
2019-03-28T21:15:27.465Z,4.63
2019-03-28T21:17:54.824Z,6.03
2019-03-28T21:20:22.114Z,4.77
2019-03-28T21:22:49.488Z,4.90
2019-03-28T21:25:16.857Z,5.20
2019-03-28T21:27:44.158Z,4.33
2019-03-28T21:30:11.712Z,4.90
2019-03-28T21:32:38.985Z,4.50
2019-03-28T21:35:07.020Z,5.13
2019-03-28T21:37:34.388Z,4.60
2019-03-28T21:40:01.821Z,4.90
2019-03-28T21:42:29.231Z,4.57
2019-03-28T21:44:58.378Z,4.53
2019-03-28T21:47:25.672Z,4.50
2019-03-28T21:49:52.945Z,4.30
2019-03-28T21:52:20.305Z,5.00
2019-03-28T21:54:47.597Z,4.83
2019-03-28T21:57:14.894Z,4.90
2019-03-28T21:59:42.241Z,5.90
2019-03-28T22:02:09.581Z,4.90
2019-03-28T22:04:36.855Z,5.57
2019-03-28T22:07:04.225Z,5.40
2019-03-28T22:09:31.530Z,6.27
2019-03-28T22:12:00.771Z,4.40
2019-03-28T22:14:28.409Z,4.90
2019-03-28T22:16:55.677Z,5.03
2019-03-28T22:19:22.943Z,4.43
2019-03-28T22:21:50.480Z,5.80
2019-03-28T22:24:17.748Z,5.10
2019-03-28T22:26:46.125Z,5.47
2019-03-28T22:29:13.624Z,6.13
2019-03-28T22:31:40.914Z,6.70
2019-03-28T22:34:08.410Z,5.50
2019-03-28T22:36:35.765Z,7.00
2019-03-28T22:39:04.885Z,4.60
2019-03-28T22:41:32.165Z,5.93
2019-03-28T22:43:59.560Z,6.10
2019-03-28T22:46:26.893Z,5.40
2019-03-28T22:48:54.162Z,5.83
2019-03-28T22:51:21.519Z,5.70
2019-03-28T22:53:48.785Z,6.73
2019-03-28T22:56:16.060Z,7.10
2019-03-28T22:58:43.373Z,5.87
2019-03-28T23:01:10.948Z,5.00
2019-03-28T23:03:38.447Z,6.30
2019-03-28T23:06:05.741Z,6.10
2019-03-28T23:08:33.242Z,5.27
2019-03-28T23:11:00.656Z,5.60
2019-03-28T23:13:27.963Z,5.77
2019-03-28T23:15:56.327Z,6.47
2019-03-28T23:18:23.593Z,6.47
2019-03-28T23:20:50.889Z,5.77
2019-03-28T23:23:18.234Z,7.13
2019-03-28T23:25:45.509Z,6.60
2019-03-28T23:28:12.797Z,7.20
2019-03-28T23:30:40.065Z,7.23
2019-03-28T23:33:07.404Z,7.00
2019-03-28T23:35:34.713Z,5.87
2019-03-28T23:38:01.988Z,6.13
2019-03-28T23:40:30.009Z,6.07
2019-03-28T23:42:57.820Z,5.70
2019-03-28T23:45:25.132Z,6.70
2019-03-28T23:47:52.401Z,5.80
2019-03-28T23:50:19.704Z,6.10
2019-03-28T23:52:46.964Z,5.70
2019-03-28T23:55:14.224Z,6.17
2019-03-28T23:57:41.618Z,5.30
